Time;durP1;ratioP1;P1;durP2;ratioP2;P2;SDS_P1;SDS_P2;PMS_P1;PMS_P2;Temp;Humidity;BMP_temperature;BMP_pressure;BME280_temperature;BME280_humidity;BME280_pressure;Samples;Min_cycle;Max_cycle;Signal;HPM_P1;HPM_P2
2022/06/22 00:05:49;;;;;;;6.18;1.45;;;16.20;99.90;;;;;;12390394;28;20046;-80
2022/06/22 00:11:51;;;;;;;5.00;1.75;;;16.00;99.90;;;;;;12405009;28;20047;-80
2022/06/22 00:17:54;;;;;;;7.32;1.95;;;15.90;99.90;;;;;;12349627;28;20117;-81
2022/06/22 00:23:59;;;;;;;3.70;1.77;;;15.60;99.90;;;;;;12366049;28;20047;-80
2022/06/22 00:30:14;;;;;;;4.75;1.90;;;15.40;99.90;;;;;;12373575;28;20046;-80
2022/06/22 00:36:20;;;;;;;4.30;1.90;;;15.50;99.90;;;;;;12355886;28;20080;-81
2022/06/22 00:42:29;;;;;;;7.35;2.00;;;15.50;99.90;;;;;;12367727;28;20447;-80
2022/06/22 00:48:36;;;;;;;6.63;1.83;;;15.50;99.90;;;;;;12348412;28;20181;-81
2022/06/22 00:54:39;;;;;;;4.68;1.70;;;15.60;99.90;;;;;;12356842;28;20056;-80
2022/06/22 01:00:47;;;;;;;5.60;2.03;;;15.60;99.90;;;;;;12355343;28;20054;-80
2022/06/22 01:07:00;;;;;;;4.05;1.88;;;15.50;99.90;;;;;;12350942;28;20129;-80
2022/06/22 01:13:27;;;;;;;8.73;2.08;;;15.60;99.90;;;;;;12361270;28;20047;-80
2022/06/22 01:19:52;;;;;;;3.33;1.90;;;15.50;99.90;;;;;;12345555;28;20125;-81
2022/06/22 01:26:27;;;;;;;5.35;2.10;;;15.60;99.90;;;;;;12374752;28;20153;-81
2022/06/22 01:32:35;;;;;;;4.40;2.20;;;15.60;99.90;;;;;;12386398;28;20432;-80
2022/06/22 01:38:40;;;;;;;4.80;2.10;;;15.60;99.90;;;;;;12370384;28;20054;-81
2022/06/22 01:45:00;;;;;;;5.38;1.90;;;15.50;99.90;;;;;;12363432;28;20115;-81
2022/06/22 01:51:20;;;;;;;6.70;2.03;;;15.50;99.90;;;;;;12359915;28;20050;-80
2022/06/22 01:57:31;;;;;;;6.70;2.17;;;15.50;99.90;;;;;;12387136;28;20157;-80
2022/06/22 02:03:41;;;;;;;6.60;2.10;;;15.50;99.90;;;;;;12384790;28;20046;-81
2022/06/22 02:10:26;;;;;;;5.40;2.10;;;15.40;99.90;;;;;;12367775;28;20437;-80
2022/06/22 02:16:35;;;;;;;3.67;2.05;;;15.40;99.90;;;;;;12389904;28;20050;-81
2022/06/22 02:22:37;;;;;;;5.10;1.92;;;15.30;99.90;;;;;;12362253;28;20165;-81
2022/06/22 02:28:40;;;;;;;4.00;1.75;;;15.20;99.90;;;;;;12368378;28;20043;-81
2022/06/22 02:34:46;;;;;;;5.00;2.00;;;15.00;99.90;;;;;;12357352;28;20617;-80
2022/06/22 02:47:31;;;;;;;4.77;1.93;;;15.10;99.90;;;;;;12378743;28;20047;-80
2022/06/22 02:53:36;;;;;;;4.78;1.80;;;15.10;99.90;;;;;;12379527;28;20045;-80
2022/06/22 02:59:38;;;;;;;4.80;1.88;;;15.00;99.90;;;;;;12371775;28;20050;-80
2022/06/22 03:05:43;;;;;;;5.03;1.85;;;15.00;99.90;;;;;;12382459;28;20074;-80
2022/06/22 03:11:51;;;;;;;5.50;1.98;;;15.00;99.90;;;;;;12347430;28;20038;-81
2022/06/22 03:17:56;;;;;;;5.43;2.05;;;15.10;99.90;;;;;;12377163;28;20470;-80
2022/06/22 03:24:05;;;;;;;4.40;1.70;;;15.10;99.90;;;;;;12371637;28;20466;-80
2022/06/22 03:30:14;;;;;;;6.78;2.28;;;15.20;99.90;;;;;;12374859;28;20472;-80
2022/06/22 03:36:43;;;;;;;5.05;2.08;;;15.30;99.90;;;;;;12365438;28;20133;-80
2022/06/22 03:43:02;;;;;;;4.60;2.25;;;15.00;99.90;;;;;;12367131;28;20038;-80
2022/06/22 03:49:12;;;;;;;4.68;2.20;;;15.10;99.90;;;;;;12373242;28;20105;-80
2022/06/22 03:55:24;;;;;;;6.55;2.35;;;15.10;99.90;;;;;;12375916;28;20039;-80
2022/06/22 04:01:26;;;;;;;4.88;2.03;;;15.20;99.90;;;;;;12383129;28;20125;-80
2022/06/22 04:07:35;;;;;;;5.72;1.90;;;15.20;99.90;;;;;;12340855;28;20062;-80
2022/06/22 04:13:42;;;;;;;5.40;2.00;;;14.90;99.90;;;;;;12366977;28;20437;-80
2022/06/22 04:19:51;;;;;;;4.10;1.90;;;14.90;99.90;;;;;;12368181;28;20058;-80
2022/06/22 04:25:57;;;;;;;4.32;1.80;;;14.90;99.90;;;;;;12374499;28;20108;-81
2022/06/22 04:32:17;;;;;;;3.97;1.60;;;14.90;99.90;;;;;;12381262;28;20496;-80
2022/06/22 04:38:29;;;;;;;5.85;1.88;;;14.90;99.90;;;;;;12408453;28;20050;-80
2022/06/22 04:44:40;;;;;;;4.82;1.90;;;14.90;99.90;;;;;;12367976;28;20046;-81
2022/06/22 04:50:44;;;;;;;2.97;1.30;;;15.00;99.90;;;;;;12352370;28;20486;-80
2022/06/22 04:56:49;;;;;;;4.32;1.23;;;15.00;99.90;;;;;;12375733;28;20185;-81
2022/06/22 05:03:03;;;;;;;6.20;1.50;;;15.10;99.90;;;;;;12365158;28;20133;-80
2022/06/22 05:09:26;;;;;;;3.87;1.30;;;15.10;99.90;;;;;;12379808;28;20050;-80
2022/06/22 05:15:38;;;;;;;8.10;1.50;;;15.20;99.90;;;;;;12369124;28;20047;-80
2022/06/22 05:21:44;;;;;;;4.72;1.50;;;15.20;99.90;;;;;;12355589;28;20042;-81
2022/06/22 05:27:56;;;;;;;4.65;1.65;;;15.50;99.90;;;;;;12370687;28;20077;-80
2022/06/22 05:34:02;;;;;;;3.17;1.20;;;15.40;99.90;;;;;;12368008;28;20144;-80
2022/06/22 05:40:05;;;;;;;2.70;1.00;;;15.40;99.90;;;;;;12369374;28;20129;-81
2022/06/22 05:46:09;;;;;;;4.28;1.42;;;15.60;99.90;;;;;;12358814;28;20051;-81
2022/06/22 05:52:29;;;;;;;6.80;1.33;;;15.60;99.90;;;;;;12362197;28;20054;-81
2022/06/22 05:58:54;;;;;;;3.40;1.10;;;15.60;99.90;;;;;;12357404;28;20050;-81
2022/06/22 06:05:06;;;;;;;3.72;1.08;;;15.70;99.90;;;;;;12362420;28;20069;-80
2022/06/22 06:11:16;;;;;;;2.80;0.90;;;15.90;99.90;;;;;;12366680;28;20118;-80
2022/06/22 06:17:57;;;;;;;2.92;0.80;;;16.00;99.90;;;;;;12391039;28;20054;-80
2022/06/22 06:24:20;;;;;;;1.63;0.80;;;16.30;99.90;;;;;;12326665;28;20050;-81
2022/06/22 06:30:34;;;;;;;2.97;0.70;;;16.50;99.90;;;;;;12368774;28;20054;-81
2022/06/22 06:37:05;;;;;;;2.92;0.80;;;16.70;99.90;;;;;;12360681;28;20043;-81
2022/06/22 06:43:32;;;;;;;3.45;0.88;;;16.80;99.90;;;;;;12351589;28;20081;-81
2022/06/22 06:50:19;;;;;;;4.13;0.93;;;16.80;99.90;;;;;;12364391;28;20490;-80
2022/06/22 06:56:42;;;;;;;2.17;0.82;;;16.90;99.90;;;;;;12331498;28;20483;-80
2022/06/22 07:02:45;;;;;;;3.25;0.90;;;17.00;99.90;;;;;;12371685;28;20088;-82
2022/06/22 07:08:57;;;;;;;8.00;1.10;;;17.20;99.90;;;;;;12353834;28;20450;-81
2022/06/22 07:15:02;;;;;;;5.07;0.80;;;17.30;99.90;;;;;;12359801;28;20053;-81
2022/06/22 07:21:20;;;;;;;6.70;1.20;;;17.40;99.90;;;;;;12351563;28;20125;-81
2022/06/22 07:27:37;;;;;;;2.55;0.77;;;17.70;99.90;;;;;;12367460;28;20531;-81
2022/06/22 07:34:00;;;;;;;3.33;0.85;;;17.80;99.90;;;;;;12343957;28;20113;-80
2022/06/22 07:40:12;;;;;;;3.92;1.02;;;18.00;99.90;;;;;;12364098;28;20058;-82
2022/06/22 07:46:25;;;;;;;3.45;1.30;;;18.00;99.90;;;;;;12372271;28;20034;-81
2022/06/22 07:52:37;;;;;;;5.20;1.10;;;18.20;99.90;;;;;;12372994;28;20461;-81
2022/06/22 07:59:03;;;;;;;5.18;1.15;;;18.20;99.90;;;;;;12352371;28;20046;-81
2022/06/22 08:05:11;;;;;;;4.90;1.30;;;18.60;99.90;;;;;;12368263;28;20038;-81
2022/06/22 08:11:36;;;;;;;2.65;1.20;;;18.70;99.90;;;;;;12360294;28;20058;-81
2022/06/22 08:17:43;;;;;;;1.50;1.02;;;18.80;99.90;;;;;;12358850;28;20059;-81
2022/06/22 08:23:45;;;;;;;6.68;1.23;;;18.90;99.90;;;;;;12363284;28;20050;-82
2022/06/22 08:29:49;;;;;;;3.72;1.20;;;18.90;99.90;;;;;;12372973;28;20178;-81
2022/06/22 08:35:59;;;;;;;5.40;1.30;;;18.80;99.90;;;;;;12365312;28;20038;-82
2022/06/22 08:42:38;;;;;;;7.07;1.40;;;18.90;99.90;;;;;;12371789;28;20046;-81
2022/06/22 08:48:56;;;;;;;3.35;1.23;;;19.00;99.90;;;;;;12360092;28;20065;-80
2022/06/22 08:55:17;;;;;;;4.93;1.45;;;19.20;99.90;;;;;;12365675;28;20480;-81
2022/06/22 09:01:40;;;;;;;5.55;1.35;;;19.30;99.90;;;;;;12348820;28;20177;-81
2022/06/22 09:08:11;;;;;;;3.90;1.20;;;19.50;99.90;;;;;;12353895;28;20141;-81
2022/06/22 09:14:32;;;;;;;6.65;1.45;;;19.70;99.90;;;;;;12353274;28;20130;-81
2022/06/22 09:20:43;;;;;;;3.15;1.00;;;19.80;99.90;;;;;;12353975;28;20125;-82
2022/06/22 09:27:03;;;;;;;4.35;1.33;;;19.90;99.90;;;;;;12366722;28;20051;-81
2022/06/22 09:33:23;;;;;;;4.35;1.00;;;19.90;99.90;;;;;;12384785;28;20073;-80
2022/06/22 09:39:49;;;;;;;4.50;1.30;;;20.10;99.90;;;;;;12361756;28;20109;-82
2022/06/22 09:46:09;;;;;;;4.55;1.20;;;20.00;99.90;;;;;;12366188;28;20042;-82
2022/06/22 09:52:39;;;;;;;4.75;1.40;;;20.00;99.90;;;;;;12382075;28;20043;-82
2022/06/22 09:59:10;;;;;;;8.52;1.60;;;20.00;99.90;;;;;;12373984;28;20096;-82
2022/06/22 10:05:39;;;;;;;3.95;1.13;;;20.00;99.90;;;;;;12345467;28;20050;-82
2022/06/22 10:11:52;;;;;;;4.97;1.60;;;20.10;99.90;;;;;;12392198;28;20049;-79
2022/06/22 10:18:14;;;;;;;4.25;1.70;;;20.30;99.90;;;;;;12381557;28;20494;-80
2022/06/22 10:24:31;;;;;;;6.72;1.55;;;20.50;99.90;;;;;;12360610;28;20054;-81
2022/06/22 10:30:57;;;;;;;4.20;1.20;;;20.60;99.90;;;;;;12379745;28;20100;-81
2022/06/22 10:37:26;;;;;;;6.03;1.73;;;21.00;99.90;;;;;;12366867;28;20509;-81
2022/06/22 10:50:52;;;;;;;2.33;0.90;;;21.30;99.90;;;;;;12372187;28;20565;-80
2022/06/22 10:57:09;;;;;;;7.03;1.10;;;21.50;99.90;;;;;;12370569;28;20501;-81
2022/06/22 11:03:38;;;;;;;3.38;1.20;;;21.60;99.90;;;;;;12365018;28;20544;-81
2022/06/22 11:09:45;;;;;;;4.30;1.10;;;21.90;99.90;;;;;;12355851;28;20402;-81
2022/06/22 11:16:14;;;;;;;5.55;0.93;;;22.00;99.90;;;;;;12348884;28;20109;-81
2022/06/22 11:22:45;;;;;;;4.10;1.13;;;22.30;99.90;;;;;;12376258;28;20114;-82
2022/06/22 11:35:35;;;;;;;4.78;1.70;;;22.60;99.90;;;;;;12379416;28;20046;-80
2022/06/22 11:41:56;;;;;;;8.30;1.65;;;22.70;99.90;;;;;;12378586;28;20491;-82
2022/06/22 11:48:35;;;;;;;5.22;1.00;;;22.80;99.90;;;;;;12353843;28;20043;-82
2022/06/22 11:55:14;;;;;;;5.28;1.50;;;22.90;99.90;;;;;;12372126;28;20069;-83
2022/06/22 12:01:45;;;;;;;5.15;1.08;;;23.00;99.90;;;;;;12356425;28;20046;-82
2022/06/22 12:08:17;;;;;;;4.45;1.10;;;23.30;99.90;;;;;;12358068;28;20049;-81
2022/06/22 12:21:09;;;;;;;2.22;0.75;;;23.40;99.90;;;;;;12378145;28;20125;-80
2022/06/22 12:27:25;;;;;;;4.07;0.90;;;23.60;99.90;;;;;;12374472;28;20054;-81
2022/06/22 12:33:35;;;;;;;5.15;0.95;;;23.40;99.90;;;;;;12379848;28;20494;-83
2022/06/22 12:39:46;;;;;;;3.83;1.10;;;23.40;99.90;;;;;;12372833;28;20054;-83
2022/06/22 12:46:21;;;;;;;4.15;1.00;;;23.50;99.90;;;;;;12358517;28;20450;-82
2022/06/22 12:52:38;;;;;;;3.60;0.93;;;23.40;99.90;;;;;;12372683;28;20137;-82
2022/06/22 12:58:59;;;;;;;2.65;0.73;;;23.40;99.90;;;;;;12374312;28;20054;-82
2022/06/22 13:05:11;;;;;;;2.47;0.73;;;23.40;99.90;;;;;;12367584;28;20133;-82
2022/06/22 13:11:20;;;;;;;6.18;1.08;;;23.50;99.90;;;;;;12350000;28;20129;-83
2022/06/22 13:17:37;;;;;;;2.60;0.90;;;23.60;99.90;;;;;;12373228;28;20058;-81
2022/06/22 13:23:52;;;;;;;3.88;1.13;;;23.50;99.90;;;;;;12387519;28;20092;-82
2022/06/22 13:30:30;;;;;;;2.38;0.90;;;23.60;99.90;;;;;;12391345;28;20042;-82
2022/06/22 13:36:57;;;;;;;2.85;0.80;;;23.70;99.90;;;;;;12389289;28;20050;-82
2022/06/22 13:43:44;;;;;;;1.33;0.65;;;23.80;99.90;;;;;;12383413;28;20151;-83
2022/06/22 13:50:30;;;;;;;2.88;0.70;;;23.80;99.90;;;;;;12358617;28;20482;-81
2022/06/22 13:57:10;;;;;;;1.40;0.57;;;23.80;99.90;;;;;;12366017;28;20452;-82
2022/06/22 14:03:38;;;;;;;2.72;0.70;;;23.90;99.90;;;;;;12376754;28;20047;-83
2022/06/22 14:09:51;;;;;;;3.45;0.75;;;23.80;99.90;;;;;;12365659;28;20598;-83
2022/06/22 14:16:27;;;;;;;2.40;0.73;;;23.80;99.90;;;;;;12365038;28;20517;-82
2022/06/22 14:22:37;;;;;;;2.72;0.82;;;23.80;99.90;;;;;;12373470;28;20503;-83
2022/06/22 14:28:57;;;;;;;1.70;0.70;;;23.70;99.90;;;;;;12376627;28;20153;-83
2022/06/22 14:35:36;;;;;;;3.53;0.80;;;23.70;99.90;;;;;;12357093;28;20046;-83
2022/06/22 14:42:00;;;;;;;1.45;0.70;;;23.70;99.90;;;;;;12358448;28;20517;-82
2022/06/22 14:48:14;;;;;;;2.63;0.70;;;23.90;99.90;;;;;;12359326;28;20173;-83
2022/06/22 14:54:48;;;;;;;2.72;0.77;;;23.80;99.90;;;;;;12362863;28;20066;-82
2022/06/22 15:01:03;;;;;;;2.88;0.65;;;23.80;99.90;;;;;;12381141;28;20133;-81
2022/06/22 15:07:11;;;;;;;4.03;0.73;;;23.90;99.90;;;;;;12389307;28;20193;-82
2022/06/22 15:13:37;;;;;;;3.22;0.75;;;24.00;99.90;;;;;;12390931;28;20131;-82
2022/06/22 15:20:02;;;;;;;1.75;0.60;;;24.20;99.90;;;;;;12378061;28;20453;-81
2022/06/22 15:26:24;;;;;;;1.67;0.70;;;24.10;99.90;;;;;;12374617;28;20062;-83
2022/06/22 15:32:36;;;;;;;2.55;0.70;;;24.10;99.90;;;;;;12374890;28;20483;-81
2022/06/22 15:38:42;;;;;;;3.17;0.80;;;24.30;99.90;;;;;;12368356;28;20062;-83
2022/06/22 15:45:19;;;;;;;2.50;0.90;;;24.50;99.90;;;;;;12361075;28;20510;-82
2022/06/22 15:51:53;;;;;;;1.85;0.60;;;24.60;99.90;;;;;;12337423;28;20063;-83
2022/06/22 15:58:00;;;;;;;1.50;0.60;;;24.50;99.90;;;;;;12372496;28;20058;-82
2022/06/22 16:04:20;;;;;;;1.98;0.77;;;24.40;99.90;;;;;;12368961;28;20185;-82
2022/06/22 16:10:30;;;;;;;2.58;0.60;;;24.30;99.90;;;;;;12358837;28;20474;-83
2022/06/22 16:16:49;;;;;;;2.72;0.60;;;24.30;99.90;;;;;;12357051;28;20208;-82
2022/06/22 16:23:03;;;;;;;1.38;0.55;;;24.10;99.90;;;;;;12353188;28;20047;-82
2022/06/22 16:29:26;;;;;;;1.90;0.80;;;24.20;99.90;;;;;;12388614;28;20050;-83
2022/06/22 16:35:47;;;;;;;2.22;0.77;;;24.40;99.90;;;;;;12381027;28;20128;-82
2022/06/22 16:42:18;;;;;;;2.13;0.70;;;24.60;99.90;;;;;;12363411;28;20072;-82
2022/06/22 16:48:57;;;;;;;2.97;0.80;;;24.60;99.90;;;;;;12384347;28;20054;-82
2022/06/22 16:55:16;;;;;;;3.30;0.82;;;24.60;99.90;;;;;;12375092;28;20047;-82
2022/06/22 17:01:18;;;;;;;2.20;0.88;;;24.60;99.90;;;;;;12381094;28;20070;-82
2022/06/22 17:07:40;;;;;;;1.67;0.65;;;24.80;99.90;;;;;;12348677;28;20094;-82
2022/06/22 17:13:45;;;;;;;2.03;0.80;;;25.00;99.90;;;;;;12380758;28;20050;-82
2022/06/22 17:19:58;;;;;;;3.88;0.70;;;25.00;99.90;;;;;;12367753;28;20474;-82
2022/06/22 17:26:35;;;;;;;2.25;0.80;;;24.60;99.90;;;;;;12369134;28;20069;-83
2022/06/22 17:32:42;;;;;;;4.05;0.75;;;24.70;99.90;;;;;;12350955;28;20050;-82
2022/06/22 17:38:56;;;;;;;2.42;0.70;;;24.50;99.90;;;;;;12373777;28;20141;-81
2022/06/22 17:45:37;;;;;;;2.97;0.68;;;24.80;99.90;;;;;;12388176;28;20046;-82
2022/06/22 17:51:47;;;;;;;1.17;0.60;;;25.10;99.90;;;;;;12383822;28;20180;-82
2022/06/22 17:57:53;;;;;;;1.95;0.68;;;25.10;99.90;;;;;;12378645;28;20521;-82
2022/06/22 18:04:21;;;;;;;1.70;0.70;;;24.80;99.90;;;;;;12385352;28;20051;-82
2022/06/22 18:10:24;;;;;;;4.68;0.80;;;25.10;99.90;;;;;;12363136;28;20051;-83
2022/06/22 18:16:35;;;;;;;1.85;0.70;;;25.10;99.90;;;;;;12374105;28;20059;-81
2022/06/22 18:22:47;;;;;;;3.80;1.23;;;24.90;99.90;;;;;;12358867;28;20400;-81
2022/06/22 18:28:54;;;;;;;2.58;1.30;;;24.60;99.90;;;;;;12371016;28;20121;-82
2022/06/22 18:35:14;;;;;;;5.03;0.95;;;24.10;99.90;;;;;;12361688;28;20149;-83
2022/06/22 18:48:06;;;;;;;2.28;0.90;;;23.20;99.90;;;;;;12380935;28;20104;-83
2022/06/22 18:54:30;;;;;;;3.20;0.70;;;23.00;99.90;;;;;;12359566;28;20123;-82
2022/06/22 19:00:39;;;;;;;4.60;2.00;;;22.80;99.90;;;;;;12353524;28;20541;-82
2022/06/22 19:06:45;;;;;;;2.80;1.30;;;22.60;99.90;;;;;;12364172;28;20047;-82
2022/06/22 19:13:01;;;;;;;3.38;0.93;;;22.50;99.90;;;;;;12355002;28;20042;-82
2022/06/22 19:19:24;;;;;;;2.00;0.90;;;22.30;99.90;;;;;;12358863;28;21643;-81
2022/06/22 19:25:35;;;;;;;;;;;22.10;99.90;;;;;;12362650;28;20084;-82
2022/06/22 19:31:48;;;;;;;1.10;0.75;;;22.00;99.90;;;;;;12347558;28;19930;-81
2022/06/22 19:38:10;;;;;;;2.23;0.93;;;21.90;99.90;;;;;;12361528;28;20073;-81
2022/06/22 19:44:14;;;;;;;1.30;0.82;;;21.80;99.90;;;;;;12395658;28;20050;-81
2022/06/22 19:50:43;;;;;;;2.33;0.98;;;21.60;99.90;;;;;;12362410;28;20097;-81
2022/06/22 19:56:47;;;;;;;3.47;1.10;;;21.50;99.90;;;;;;12377362;28;20077;-82
2022/06/22 20:03:21;;;;;;;2.17;0.75;;;21.50;99.90;;;;;;12366154;28;20133;-81
2022/06/22 20:09:33;;;;;;;3.25;1.00;;;21.40;99.90;;;;;;12362489;28;20073;-82
2022/06/22 20:15:38;;;;;;;2.85;0.80;;;21.10;99.90;;;;;;12358113;28;20465;-81
2022/06/22 20:22:02;;;;;;;2.60;1.20;;;20.90;99.90;;;;;;12375028;28;20051;-82
2022/06/22 20:28:22;;;;;;;3.83;1.33;;;20.90;99.90;;;;;;12344959;28;20614;-81
2022/06/22 20:34:40;;;;;;;2.33;1.10;;;20.70;99.90;;;;;;12356960;28;20082;-82
2022/06/22 20:40:42;;;;;;;4.72;1.50;;;20.50;99.90;;;;;;12364884;28;20189;-81
2022/06/22 20:47:02;;;;;;;9.73;2.45;;;20.30;99.90;;;;;;12373047;28;20400;-81
2022/06/22 20:53:12;;;;;;;7.18;1.70;;;20.10;99.90;;;;;;12371026;28;20049;-81
2022/06/22 20:59:25;;;;;;;3.35;1.70;;;20.00;99.90;;;;;;12375875;28;20090;-81
2022/06/22 21:05:48;;;;;;;3.67;1.55;;;20.00;99.90;;;;;;12353866;28;20418;-81
2022/06/22 21:12:25;;;;;;;5.80;1.70;;;20.00;99.90;;;;;;12349281;28;20035;-81
2022/06/22 21:18:38;;;;;;;4.63;2.03;;;19.80;99.90;;;;;;12391827;28;20138;-81
2022/06/22 21:25:11;;;;;;;4.45;1.70;;;19.60;99.90;;;;;;12366324;28;20403;-81
2022/06/22 21:31:13;;;;;;;3.23;1.70;;;19.50;99.90;;;;;;12361411;28;20069;-81
2022/06/22 21:37:31;;;;;;;3.50;1.40;;;19.60;99.90;;;;;;12365649;28;20104;-82
2022/06/22 21:43:48;;;;;;;4.00;1.17;;;19.60;99.90;;;;;;12385195;28;20113;-81
2022/06/22 21:50:22;;;;;;;3.60;1.50;;;19.50;99.90;;;;;;12363382;28;20088;-81
2022/06/22 21:56:26;;;;;;;3.53;1.47;;;19.40;99.90;;;;;;12368080;28;20162;-81
2022/06/22 22:02:31;;;;;;;3.60;1.55;;;19.10;99.90;;;;;;12383205;28;20316;-81
2022/06/22 22:08:52;;;;;;;3.85;1.60;;;18.90;99.90;;;;;;12377683;28;20476;-81
2022/06/22 22:15:01;;;;;;;6.55;2.20;;;18.80;99.90;;;;;;12373302;28;20434;-81
2022/06/22 22:21:33;;;;;;;5.55;2.17;;;18.40;99.90;;;;;;12362442;28;20649;-80
2022/06/22 22:27:42;;;;;;;5.43;2.30;;;18.30;99.90;;;;;;12364651;28;20073;-80
2022/06/22 22:33:46;;;;;;;8.50;2.85;;;18.30;99.90;;;;;;12378675;28;20068;-80
2022/06/22 22:39:51;;;;;;;7.25;2.58;;;18.50;99.90;;;;;;12348833;28;20046;-80
2022/06/22 22:45:53;;;;;;;6.40;2.47;;;18.50;99.90;;;;;;12365936;28;20188;-81
2022/06/22 22:52:02;;;;;;;4.78;2.75;;;18.70;99.90;;;;;;12353778;28;20561;-80
2022/06/22 22:58:20;;;;;;;7.40;2.80;;;18.70;99.90;;;;;;12388484;28;20111;-81
2022/06/22 23:04:29;;;;;;;5.70;2.47;;;18.60;99.90;;;;;;12373478;28;20046;-81
2022/06/22 23:10:34;;;;;;;5.22;2.35;;;18.60;99.90;;;;;;12382631;28;20053;-81
2022/06/22 23:16:41;;;;;;;5.47;2.72;;;18.60;99.90;;;;;;12352359;28;20058;-81
2022/06/22 23:22:46;;;;;;;10.23;3.15;;;18.40;99.90;;;;;;12355159;28;20038;-81
2022/06/22 23:28:53;;;;;;;8.73;3.20;;;18.10;99.90;;;;;;12399053;28;20081;-81
2022/06/22 23:35:12;;;;;;;8.80;3.10;;;18.00;99.90;;;;;;12353730;28;20132;-80
2022/06/22 23:41:18;;;;;;;4.25;2.60;;;18.10;99.90;;;;;;12375440;28;20486;-80
2022/06/22 23:53:54;;;;;;;5.97;2.85;;;18.10;99.90;;;;;;12376102;28;20126;-80
